createdAt,value
2023-05-04T00:00:39.828Z,95180.00
2023-05-04T00:01:39.838Z,95182.00
2023-05-04T00:02:39.908Z,95180.00
2023-05-04T00:03:39.960Z,95178.00
2023-05-04T00:04:39.880Z,95180.00
2023-05-04T00:05:39.915Z,95180.00
2023-05-04T00:06:39.907Z,95180.00
2023-05-04T00:07:39.917Z,95180.00
2023-05-04T00:08:39.917Z,95180.00
2023-05-04T00:09:39.959Z,95178.00
2023-05-04T00:10:40.021Z,95178.00
2023-05-04T00:11:39.989Z,95176.00
2023-05-04T00:12:40.015Z,95178.00
2023-05-04T00:13:40.008Z,95176.00
2023-05-04T00:14:40.077Z,95174.00
2023-05-04T00:15:40.056Z,95174.00
2023-05-04T00:16:40.568Z,95174.00
2023-05-04T00:17:40.114Z,95174.00
2023-05-04T00:18:40.154Z,95170.00
2023-05-04T00:19:40.148Z,95176.00
2023-05-04T00:20:40.159Z,95174.00
2023-05-04T00:21:40.145Z,95172.00
2023-05-04T00:22:40.156Z,95172.00
2023-05-04T00:23:40.239Z,95170.00
2023-05-04T00:24:40.178Z,95172.00
2023-05-04T00:25:40.213Z,95170.00
2023-05-04T00:26:40.217Z,95172.00
2023-05-04T00:27:40.230Z,95174.00
2023-05-04T00:28:40.245Z,95172.00
2023-05-04T00:29:40.279Z,95174.00
2023-05-04T00:30:40.274Z,95172.00
2023-05-04T00:31:40.324Z,95172.00
2023-05-04T00:32:40.346Z,95170.00
2023-05-04T00:33:40.330Z,95170.00
2023-05-04T00:34:40.337Z,95170.00
2023-05-04T00:35:40.370Z,95170.00
2023-05-04T00:36:40.362Z,95168.00
2023-05-04T00:37:40.364Z,95170.00
2023-05-04T00:38:40.381Z,95170.00
2023-05-04T00:39:40.391Z,95170.00
2023-05-04T00:40:40.435Z,95172.00
2023-05-04T00:41:40.445Z,95172.00
2023-05-04T00:42:40.450Z,95174.00
2023-05-04T00:43:40.453Z,95172.00
2023-05-04T00:44:40.504Z,95174.00
2023-05-04T00:45:40.547Z,95174.00
2023-05-04T00:46:40.611Z,95172.00
2023-05-04T00:47:40.594Z,95176.00
2023-05-04T00:48:40.570Z,95170.00
2023-05-04T00:49:40.561Z,95176.00
2023-05-04T00:50:40.600Z,95176.00
2023-05-04T00:51:40.616Z,95170.00
2023-05-04T00:52:40.648Z,95168.00
2023-05-04T00:53:40.668Z,95170.00
2023-05-04T00:54:40.671Z,95168.00
2023-05-04T00:55:40.705Z,95168.00
2023-05-04T00:56:40.749Z,95168.00
2023-05-04T00:57:40.737Z,95166.00
2023-05-04T00:58:40.719Z,95168.00
2023-05-04T00:59:40.749Z,95166.00
2023-05-04T01:00:40.826Z,95168.00
2023-05-04T01:01:40.791Z,95166.00
2023-05-04T01:02:40.872Z,95168.00
2023-05-04T01:03:40.875Z,95166.00
2023-05-04T01:04:40.877Z,95168.00
2023-05-04T01:05:40.862Z,95166.00
2023-05-04T01:06:40.905Z,95168.00
2023-05-04T01:07:40.919Z,95168.00
2023-05-04T01:08:40.955Z,95166.00
2023-05-04T01:09:41.069Z,95168.00
2023-05-04T01:10:40.978Z,95166.00
2023-05-04T01:11:40.998Z,95170.00
2023-05-04T01:12:41.039Z,95166.00
2023-05-04T01:13:41.008Z,95168.00
2023-05-04T01:14:41.066Z,95166.00
2023-05-04T01:15:41.068Z,95168.00
2023-05-04T01:16:41.079Z,95164.00
2023-05-04T01:17:41.108Z,95166.00
2023-05-04T01:18:41.122Z,95164.00
2023-05-04T01:19:41.104Z,95168.00
2023-05-04T01:20:41.116Z,95166.00
2023-05-04T01:21:41.147Z,95168.00
2023-05-04T01:22:41.165Z,95172.00
2023-05-04T01:23:41.197Z,95170.00
2023-05-04T01:24:41.234Z,95170.00
2023-05-04T01:25:41.205Z,95170.00
2023-05-04T01:26:41.252Z,95170.00
2023-05-04T01:27:41.240Z,95170.00
2023-05-04T01:28:41.262Z,95170.00
2023-05-04T01:29:41.333Z,95168.00
2023-05-04T01:30:41.318Z,95168.00
2023-05-04T01:31:41.311Z,95166.00
2023-05-04T01:32:41.546Z,95168.00
2023-05-04T01:33:41.352Z,95170.00
2023-05-04T01:34:41.416Z,95170.00
2023-05-04T01:35:41.391Z,95170.00
2023-05-04T01:36:41.470Z,95170.00
2023-05-04T01:37:41.450Z,95170.00
2023-05-04T01:38:41.494Z,95172.00
2023-05-04T01:39:41.500Z,95172.00
2023-05-04T01:40:41.538Z,95172.00
2023-05-04T01:41:41.506Z,95172.00
2023-05-04T01:42:41.572Z,95172.00
2023-05-04T01:43:41.560Z,95172.00
2023-05-04T01:44:41.598Z,95172.00
2023-05-04T01:45:41.591Z,95170.00
2023-05-04T01:46:41.672Z,95172.00
2023-05-04T01:47:41.699Z,95172.00
2023-05-04T01:48:41.676Z,95172.00
2023-05-04T01:49:41.675Z,95172.00
2023-05-04T01:50:41.688Z,95170.00
2023-05-04T01:51:41.741Z,95172.00
2023-05-04T01:52:41.749Z,95172.00
2023-05-04T01:53:41.747Z,95172.00
2023-05-04T01:54:41.746Z,95174.00
2023-05-04T01:55:41.853Z,95172.00
2023-05-04T01:56:41.814Z,95176.00
2023-05-04T01:57:41.808Z,95172.00
2023-05-04T01:58:41.864Z,95174.00
2023-05-04T01:59:41.853Z,95176.00
2023-05-04T02:00:41.854Z,95172.00
2023-05-04T02:01:42.023Z,95174.00
2023-05-04T02:02:41.938Z,95172.00
2023-05-04T02:03:41.994Z,95174.00
2023-05-04T02:04:41.950Z,95174.00
2023-05-04T02:05:41.947Z,95174.00
2023-05-04T02:06:41.985Z,95174.00
2023-05-04T02:07:42.003Z,95174.00
2023-05-04T02:08:42.008Z,95174.00
2023-05-04T02:09:42.016Z,95174.00
2023-05-04T02:10:42.037Z,95176.00
2023-05-04T02:11:42.107Z,95172.00
2023-05-04T02:12:42.116Z,95172.00
2023-05-04T02:13:42.107Z,95172.00
2023-05-04T02:14:42.136Z,95172.00
2023-05-04T02:15:42.201Z,95170.00
2023-05-04T02:16:42.183Z,95170.00
2023-05-04T02:17:42.333Z,95170.00
2023-05-04T02:18:43.054Z,95172.00
2023-05-04T02:19:43.080Z,95172.00
2023-05-04T02:20:42.218Z,95174.00
2023-05-04T02:21:42.262Z,95174.00
2023-05-04T02:22:42.259Z,95174.00
2023-05-04T02:23:42.291Z,95174.00
2023-05-04T02:24:42.327Z,95174.00
2023-05-04T02:25:42.324Z,95172.00
2023-05-04T02:26:42.421Z,95174.00
2023-05-04T02:27:42.379Z,95176.00
2023-05-04T02:28:42.428Z,95172.00
2023-05-04T02:29:42.481Z,95176.00
2023-05-04T02:30:42.423Z,95178.00
2023-05-04T02:31:42.560Z,95178.00
2023-05-04T02:32:42.715Z,95174.00
2023-05-04T02:33:42.451Z,95178.00
2023-05-04T02:34:42.498Z,95176.00
2023-05-04T02:35:42.498Z,95172.00
2023-05-04T02:36:42.595Z,95178.00
2023-05-04T02:37:42.591Z,95180.00
2023-05-04T02:38:42.582Z,95178.00
2023-05-04T02:39:42.599Z,95178.00
2023-05-04T02:40:42.606Z,95176.00
2023-05-04T02:41:42.639Z,95176.00
2023-05-04T02:42:42.696Z,95176.00
2023-05-04T02:43:42.729Z,95174.00
2023-05-04T02:44:42.673Z,95176.00
2023-05-04T02:45:42.764Z,95178.00
2023-05-04T02:46:42.737Z,95178.00
2023-05-04T02:47:42.880Z,95176.00
2023-05-04T02:48:42.776Z,95180.00
2023-05-04T02:49:42.799Z,95178.00
2023-05-04T02:50:42.845Z,95176.00
2023-05-04T02:51:42.829Z,95180.00
2023-05-04T02:52:42.889Z,95178.00
2023-05-04T02:53:42.908Z,95178.00
2023-05-04T02:54:42.872Z,95180.00
2023-05-04T02:55:42.895Z,95180.00
2023-05-04T02:56:42.922Z,95178.00
2023-05-04T02:57:42.976Z,95182.00
2023-05-04T02:58:42.963Z,95180.00
2023-05-04T02:59:42.997Z,95176.00
2023-05-04T03:00:43.002Z,95178.00
2023-05-04T03:01:43.073Z,95176.00
2023-05-04T03:02:43.108Z,95174.00
2023-05-04T03:03:43.056Z,95174.00
2023-05-04T03:04:43.134Z,95174.00
2023-05-04T03:05:43.195Z,95176.00
2023-05-04T03:06:43.126Z,95174.00
2023-05-04T03:07:43.187Z,95176.00
2023-05-04T03:08:43.169Z,95178.00
2023-05-04T03:09:44.219Z,95178.00
2023-05-04T03:10:43.201Z,95180.00
2023-05-04T03:11:43.244Z,95180.00
2023-05-04T03:12:43.296Z,95182.00
2023-05-04T03:13:43.336Z,95184.00
2023-05-04T03:14:43.287Z,95182.00
2023-05-04T03:15:43.330Z,95186.00
2023-05-04T03:16:43.397Z,95186.00
2023-05-04T03:17:43.406Z,95186.00
2023-05-04T03:18:43.381Z,95188.00
2023-05-04T03:19:43.421Z,95190.00
2023-05-04T03:20:43.415Z,95190.00
2023-05-04T03:21:43.443Z,95192.00
2023-05-04T03:22:43.459Z,95194.00
2023-05-04T03:23:43.475Z,95192.00
2023-05-04T03:24:43.486Z,95194.00
2023-05-04T03:25:43.558Z,95196.00
2023-05-04T03:26:43.519Z,95196.00
2023-05-04T03:27:43.554Z,95198.00
2023-05-04T03:28:43.564Z,95198.00
2023-05-04T03:29:43.586Z,95196.00
2023-05-04T03:30:43.622Z,95198.00
2023-05-04T03:31:43.695Z,95200.00
2023-05-04T03:32:43.647Z,95196.00
2023-05-04T03:33:43.706Z,95198.00
2023-05-04T03:34:43.668Z,95198.00
2023-05-04T03:35:43.690Z,95196.00
2023-05-04T03:36:43.718Z,95198.00
2023-05-04T03:37:43.732Z,95200.00
2023-05-04T03:38:43.744Z,95198.00
2023-05-04T03:39:44.632Z,95198.00
2023-05-04T03:40:43.787Z,95198.00
2023-05-04T03:41:43.824Z,95196.00
2023-05-04T03:42:43.841Z,95200.00
2023-05-04T03:43:43.845Z,95200.00
2023-05-04T03:44:43.854Z,95198.00
2023-05-04T03:45:43.930Z,95198.00
2023-05-04T03:46:43.899Z,95196.00
2023-05-04T03:47:43.982Z,95198.00
2023-05-04T03:48:43.934Z,95198.00
2023-05-04T03:49:43.951Z,95196.00
2023-05-04T03:50:43.974Z,95196.00
2023-05-04T03:51:43.989Z,95196.00
2023-05-04T03:52:44.024Z,95194.00
2023-05-04T03:53:44.847Z,95194.00
2023-05-04T03:54:44.052Z,95194.00
2023-05-04T03:55:44.065Z,95194.00
2023-05-04T03:56:44.146Z,95192.00
2023-05-04T03:57:44.157Z,95194.00
2023-05-04T03:58:44.176Z,95194.00
2023-05-04T03:59:44.202Z,95196.00
2023-05-04T04:00:44.229Z,95196.00
2023-05-04T04:01:44.212Z,95194.00
2023-05-04T04:02:44.337Z,95194.00
2023-05-04T04:03:44.299Z,95198.00
2023-05-04T04:04:44.406Z,95196.00
2023-05-04T04:05:44.300Z,95198.00
2023-05-04T04:06:44.322Z,95194.00
2023-05-04T04:07:44.340Z,95198.00
2023-05-04T04:08:44.373Z,95196.00
2023-05-04T04:09:44.385Z,95198.00
2023-05-04T04:10:44.398Z,95200.00
2023-05-04T04:11:44.415Z,95201.00
2023-05-04T04:12:44.508Z,95203.00
2023-05-04T04:13:44.512Z,95201.00
2023-05-04T04:14:44.481Z,95201.00
2023-05-04T04:15:44.586Z,95200.00
2023-05-04T04:16:44.714Z,95201.00
2023-05-04T04:17:44.588Z,95201.00
2023-05-04T04:18:44.595Z,95201.00
2023-05-04T04:19:44.608Z,95201.00
2023-05-04T04:20:44.629Z,95200.00
2023-05-04T04:21:44.634Z,95201.00
2023-05-04T04:22:44.675Z,95201.00
2023-05-04T04:23:44.689Z,95203.00
2023-05-04T04:24:44.687Z,95203.00
2023-05-04T04:25:44.720Z,95201.00
2023-05-04T04:26:44.747Z,95201.00
2023-05-04T04:27:44.757Z,95201.00
2023-05-04T04:28:44.806Z,95200.00
2023-05-04T04:29:44.800Z,95201.00
2023-05-04T04:30:44.821Z,95201.00
2023-05-04T04:31:44.866Z,95200.00
2023-05-04T04:32:44.905Z,95198.00
2023-05-04T04:33:44.908Z,95200.00
2023-05-04T04:34:44.899Z,95198.00
2023-05-04T04:35:44.967Z,95200.00
2023-05-04T04:36:44.974Z,95200.00
2023-05-04T04:37:45.010Z,95200.00
2023-05-04T04:38:44.995Z,95200.00
2023-05-04T04:39:45.030Z,95198.00
2023-05-04T04:40:45.062Z,95201.00
2023-05-04T04:41:45.066Z,95198.00
2023-05-04T04:42:45.091Z,95201.00
2023-05-04T04:43:45.107Z,95200.00
2023-05-04T04:44:45.130Z,95200.00
2023-05-04T04:45:45.188Z,95200.00
2023-05-04T04:46:45.183Z,95200.00
2023-05-04T04:47:45.336Z,95198.00
2023-05-04T04:48:45.201Z,95200.00
2023-05-04T04:49:45.221Z,95200.00
2023-05-04T04:50:45.232Z,95201.00
2023-05-04T04:51:45.266Z,95200.00
2023-05-04T04:52:45.279Z,95200.00
2023-05-04T04:53:45.291Z,95203.00
2023-05-04T04:54:45.386Z,95203.00
2023-05-04T04:55:45.340Z,95201.00
2023-05-04T04:56:45.351Z,95203.00
2023-05-04T04:57:45.481Z,95205.00
2023-05-04T04:58:45.387Z,95205.00
2023-05-04T04:59:45.448Z,95207.00
2023-05-04T05:00:45.526Z,95209.00
2023-05-04T05:01:45.453Z,95207.00
2023-05-04T05:02:45.501Z,95207.00
2023-05-04T05:03:45.480Z,95207.00
2023-05-04T05:04:45.533Z,95205.00
2023-05-04T05:05:45.569Z,95205.00
2023-05-04T05:06:45.557Z,95205.00
2023-05-04T05:07:45.574Z,95209.00
2023-05-04T05:08:45.614Z,95207.00
2023-05-04T05:09:45.642Z,95207.00
2023-05-04T05:10:45.609Z,95209.00
2023-05-04T05:11:45.685Z,95205.00
2023-05-04T05:12:45.680Z,95209.00
2023-05-04T05:13:45.716Z,95209.00
2023-05-04T05:14:45.733Z,95209.00
2023-05-04T05:15:45.704Z,95209.00
2023-05-04T05:16:45.785Z,95209.00
2023-05-04T05:17:45.776Z,95209.00
2023-05-04T05:18:45.813Z,95211.00
2023-05-04T05:19:45.826Z,95207.00
2023-05-04T05:20:45.793Z,95209.00
2023-05-04T05:21:45.968Z,95207.00
2023-05-04T05:22:45.852Z,95211.00
2023-05-04T05:23:45.909Z,95207.00
2023-05-04T05:24:46.065Z,95207.00
2023-05-04T05:25:46.102Z,95207.00
2023-05-04T05:26:46.130Z,95203.00
2023-05-04T05:27:46.190Z,95205.00
2023-05-04T05:28:46.219Z,95205.00
2023-05-04T05:29:46.277Z,95205.00
2023-05-04T05:30:46.297Z,95205.00
2023-05-04T05:31:46.341Z,95203.00
2023-05-04T05:32:49.020Z,95200.00
2023-05-04T05:33:46.294Z,95200.00
2023-05-04T05:34:46.310Z,95200.00
2023-05-04T05:35:46.353Z,95200.00
2023-05-04T05:36:46.270Z,95200.00
2023-05-04T05:37:46.684Z,95203.00
2023-05-04T05:38:47.823Z,95203.00
2023-05-04T05:39:46.311Z,95205.00
2023-05-04T05:40:46.227Z,95201.00
2023-05-04T05:41:46.294Z,95201.00
2023-05-04T05:42:46.259Z,95201.00
2023-05-04T05:43:46.225Z,95200.00
2023-05-04T05:44:46.295Z,95198.00
2023-05-04T05:45:46.354Z,95200.00
2023-05-04T05:46:46.340Z,95201.00
2023-05-04T05:47:46.405Z,95200.00
2023-05-04T05:48:46.173Z,95200.00
2023-05-04T05:49:46.600Z,95201.00
2023-05-04T05:50:46.154Z,95201.00
2023-05-04T05:51:46.200Z,95203.00
2023-05-04T05:52:46.288Z,95201.00
2023-05-04T05:53:46.154Z,95201.00
2023-05-04T05:54:46.171Z,95203.00
2023-05-04T05:55:46.140Z,95203.00
2023-05-04T05:56:46.188Z,95201.00
2023-05-04T05:57:46.117Z,95203.00
2023-05-04T05:58:46.210Z,95203.00
2023-05-04T05:59:46.112Z,95201.00
2023-05-04T06:00:46.130Z,95201.00
2023-05-04T06:01:46.093Z,95200.00
2023-05-04T06:02:46.209Z,95203.00
2023-05-04T06:03:46.277Z,95201.00
2023-05-04T06:04:46.224Z,95198.00
2023-05-04T06:05:46.079Z,95200.00
2023-05-04T06:06:46.281Z,95198.00
2023-05-04T06:07:46.068Z,95200.00
2023-05-04T06:08:46.062Z,95198.00
2023-05-04T06:09:46.093Z,95194.00
2023-05-04T06:10:46.064Z,95198.00
2023-05-04T06:11:46.069Z,95196.00
2023-05-04T06:12:46.100Z,95198.00
2023-05-04T06:13:46.017Z,95196.00
2023-05-04T06:14:46.004Z,95196.00
2023-05-04T06:15:46.081Z,95194.00
2023-05-04T06:16:46.234Z,95194.00
2023-05-04T06:17:46.012Z,95192.00
2023-05-04T06:18:46.011Z,95194.00
2023-05-04T06:19:46.772Z,95194.00
2023-05-04T06:20:45.986Z,95190.00
2023-05-04T06:21:45.962Z,95192.00
2023-05-04T06:22:46.017Z,95190.00
2023-05-04T06:23:46.034Z,95190.00
2023-05-04T06:24:46.104Z,95186.00
2023-05-04T06:25:46.137Z,95188.00
2023-05-04T06:26:46.204Z,95188.00
2023-05-04T06:27:46.204Z,95190.00
2023-05-04T06:28:46.230Z,95186.00
2023-05-04T06:29:46.292Z,95186.00
2023-05-04T06:30:47.188Z,95182.00
2023-05-04T06:31:48.070Z,95184.00
2023-05-04T06:32:46.426Z,95182.00
2023-05-04T06:33:46.427Z,95180.00
2023-05-04T06:34:46.450Z,95178.00
2023-05-04T06:35:46.510Z,95178.00
2023-05-04T06:36:46.533Z,95178.00
2023-05-04T06:37:46.765Z,95176.00
2023-05-04T06:38:46.635Z,95176.00
2023-05-04T06:39:46.760Z,95176.00
2023-05-04T06:40:46.663Z,95174.00
2023-05-04T06:41:46.678Z,95176.00
2023-05-04T06:42:47.174Z,95170.00
2023-05-04T06:43:46.841Z,95172.00
2023-05-04T06:44:46.779Z,95172.00
2023-05-04T06:45:46.884Z,95170.00
2023-05-04T06:46:46.799Z,95168.00
2023-05-04T06:47:47.248Z,95168.00
2023-05-04T06:48:46.859Z,95166.00
2023-05-04T06:49:46.892Z,95166.00
2023-05-04T06:50:46.912Z,95162.00
2023-05-04T06:51:46.925Z,95162.00
2023-05-04T06:52:47.157Z,95162.00
2023-05-04T06:53:47.005Z,95162.00
2023-05-04T06:54:47.034Z,95162.00
2023-05-04T06:55:47.095Z,95158.00
2023-05-04T06:56:47.065Z,95158.00
2023-05-04T06:57:47.094Z,95158.00
2023-05-04T06:58:47.165Z,95158.00
2023-05-04T06:59:47.195Z,95156.00
2023-05-04T07:00:47.203Z,95154.00
2023-05-04T07:01:47.230Z,95147.00
2023-05-04T07:02:48.265Z,95154.00
2023-05-04T07:03:48.283Z,95154.00
2023-05-04T07:04:47.275Z,95158.00
2023-05-04T07:05:47.277Z,95156.00
2023-05-04T07:06:48.210Z,95154.00
2023-05-04T07:07:48.105Z,95156.00
2023-05-04T07:08:47.332Z,95154.00
2023-05-04T07:09:47.311Z,95145.00
2023-05-04T07:10:47.330Z,95143.00
2023-05-04T07:11:47.339Z,95147.00
2023-05-04T07:12:47.435Z,95145.00
2023-05-04T07:13:47.371Z,95143.00
2023-05-04T07:14:47.396Z,95141.00
2023-05-04T07:15:47.433Z,95143.00
2023-05-04T07:16:47.471Z,95141.00
2023-05-04T07:17:47.554Z,95137.00
2023-05-04T07:18:47.432Z,95137.00
2023-05-04T07:19:47.440Z,95135.00
2023-05-04T07:20:47.477Z,95135.00
2023-05-04T07:21:47.487Z,95135.00
2023-05-04T07:22:47.681Z,95133.00
2023-05-04T07:23:47.525Z,95133.00
2023-05-04T07:24:47.715Z,95133.00
2023-05-04T07:25:47.653Z,95129.00
2023-05-04T07:26:47.543Z,95131.00
2023-05-04T07:27:47.583Z,95131.00
2023-05-04T07:28:47.624Z,95131.00
2023-05-04T07:29:47.629Z,95127.00
2023-05-04T07:30:47.599Z,95135.00
2023-05-04T07:31:47.743Z,95131.00
2023-05-04T07:32:47.648Z,95129.00
2023-05-04T07:33:47.669Z,95129.00
2023-05-04T07:34:47.664Z,95127.00
2023-05-04T07:35:47.664Z,95125.00
2023-05-04T07:36:47.597Z,95121.00
2023-05-04T07:37:47.686Z,95119.00
2023-05-04T07:38:47.685Z,95115.00
2023-05-04T07:39:47.699Z,95115.00
2023-05-04T07:40:47.619Z,95113.00
2023-05-04T07:41:49.569Z,95113.00
2023-05-04T07:42:47.688Z,95109.00
2023-05-04T07:43:47.716Z,95109.00
2023-05-04T07:44:47.646Z,95107.00
2023-05-04T07:45:47.686Z,95105.00
2023-05-04T07:46:47.729Z,95101.00
2023-05-04T07:47:47.741Z,95100.00
2023-05-04T07:48:47.719Z,95101.00
2023-05-04T07:49:47.721Z,95096.00
2023-05-04T07:50:48.696Z,95096.00
2023-05-04T07:51:48.717Z,95094.00
2023-05-04T07:52:47.832Z,95094.00
2023-05-04T07:53:47.816Z,95094.00
2023-05-04T07:54:47.851Z,95094.00
2023-05-04T07:55:48.326Z,95092.00
2023-05-04T07:56:47.934Z,95084.00
2023-05-04T07:57:48.121Z,95084.00
2023-05-04T07:58:48.024Z,95080.00
2023-05-04T07:59:47.975Z,95080.00
2023-05-04T08:00:48.015Z,95080.00
2023-05-04T08:01:48.074Z,95078.00
2023-05-04T08:02:48.241Z,95076.00
2023-05-04T08:03:48.162Z,95078.00
2023-05-04T08:04:48.178Z,95076.00
2023-05-04T08:05:48.211Z,95074.00
2023-05-04T08:06:48.267Z,95072.00
2023-05-04T08:07:48.446Z,95068.00
2023-05-04T08:08:48.324Z,95068.00
2023-05-04T08:09:48.473Z,95064.00
2023-05-04T08:10:48.450Z,95062.00
2023-05-04T08:11:48.619Z,95062.00
2023-05-04T08:12:48.884Z,95062.00
2023-05-04T08:13:48.523Z,95064.00
2023-05-04T08:14:48.568Z,95064.00
2023-05-04T08:15:48.683Z,95060.00
2023-05-04T08:16:48.659Z,95064.00
2023-05-04T08:17:49.245Z,95060.00
2023-05-04T08:18:48.762Z,95060.00
2023-05-04T08:19:48.759Z,95058.00
2023-05-04T08:20:48.891Z,95060.00
2023-05-04T08:21:48.862Z,95056.00
2023-05-04T08:22:49.231Z,95056.00
2023-05-04T08:23:48.947Z,95053.00
2023-05-04T08:24:48.958Z,95058.00
2023-05-04T08:25:49.169Z,95054.00
2023-05-04T08:26:59.783Z,95058.00
2023-05-04T08:27:50.231Z,95054.00
2023-05-04T08:28:49.218Z,95058.00
2023-05-04T08:29:49.770Z,95054.00
2023-05-04T08:30:49.130Z,95054.00
2023-05-04T08:31:49.033Z,95054.00
2023-05-04T08:32:49.001Z,95053.00
2023-05-04T08:33:48.977Z,95053.00
2023-05-04T08:34:48.987Z,95051.00
2023-05-04T08:35:48.956Z,95051.00
2023-05-04T08:36:48.963Z,95051.00
2023-05-04T08:37:49.232Z,95051.00
2023-05-04T08:38:49.260Z,95051.00
2023-05-04T08:39:48.986Z,95049.00
2023-05-04T08:40:50.559Z,95049.00
2023-05-04T08:41:49.167Z,95051.00
2023-05-04T08:42:49.189Z,95051.00
2023-05-04T08:43:49.146Z,95047.00
2023-05-04T08:44:49.179Z,95043.00
2023-05-04T08:45:49.214Z,95045.00
2023-05-04T08:46:49.248Z,95045.00
2023-05-04T08:47:49.299Z,95045.00
2023-05-04T08:48:49.312Z,95041.00
2023-05-04T08:49:49.338Z,95041.00
2023-05-04T08:50:49.405Z,95043.00
2023-05-04T08:51:49.460Z,95039.00
2023-05-04T08:52:49.430Z,95041.00
2023-05-04T08:53:49.441Z,95041.00
2023-05-04T08:54:49.481Z,95039.00
2023-05-04T08:55:49.488Z,95041.00
2023-05-04T08:56:49.499Z,95037.00
2023-05-04T08:57:51.098Z,95037.00
2023-05-04T08:58:49.543Z,95035.00
2023-05-04T08:59:49.551Z,95035.00
2023-05-04T09:00:49.599Z,95033.00
2023-05-04T09:01:49.660Z,95031.00
2023-05-04T09:02:49.685Z,95029.00
2023-05-04T09:03:49.841Z,95029.00
2023-05-04T09:04:49.641Z,95027.00
2023-05-04T09:05:49.673Z,95023.00
2023-05-04T09:06:49.687Z,95021.00
2023-05-04T09:07:49.664Z,95023.00
2023-05-04T09:08:49.717Z,95019.00
2023-05-04T09:09:49.695Z,95019.00
2023-05-04T09:10:49.693Z,95015.00
2023-05-04T09:11:49.698Z,95015.00
2023-05-04T09:12:49.748Z,95015.00
2023-05-04T09:13:49.749Z,95011.00
2023-05-04T09:14:49.781Z,95011.00
2023-05-04T09:15:49.762Z,95009.00
2023-05-04T09:16:49.802Z,95006.00
2023-05-04T09:17:57.776Z,95002.00
2023-05-04T09:18:50.769Z,95007.00
2023-05-04T09:19:49.741Z,95004.00
2023-05-04T09:20:49.750Z,95002.00
2023-05-04T09:21:51.279Z,95002.00
2023-05-04T09:22:49.749Z,94998.00
2023-05-04T09:23:49.734Z,94998.00
2023-05-04T09:24:49.715Z,94998.00
2023-05-04T09:25:49.736Z,94998.00
2023-05-04T09:26:49.718Z,94994.00
2023-05-04T09:27:49.710Z,94992.00
2023-05-04T09:28:49.683Z,94988.00
2023-05-04T09:29:49.754Z,94990.00
2023-05-04T09:30:49.833Z,94988.00
2023-05-04T09:31:49.684Z,94990.00
2023-05-04T09:32:49.893Z,94988.00
2023-05-04T09:33:51.982Z,94988.00
2023-05-04T09:34:49.663Z,94984.00
2023-05-04T09:35:49.623Z,94982.00
2023-05-04T09:36:49.630Z,94984.00
2023-05-04T09:37:49.745Z,94986.00
2023-05-04T09:38:49.611Z,94978.00
2023-05-04T09:39:49.660Z,94976.00
2023-05-04T09:40:49.679Z,94974.00
2023-05-04T09:41:49.572Z,94974.00
2023-05-04T09:42:49.595Z,94974.00
2023-05-04T09:43:49.607Z,94974.00
2023-05-04T09:44:49.571Z,94970.00
2023-05-04T09:45:49.570Z,94970.00
2023-05-04T09:46:49.584Z,94966.00
2023-05-04T09:47:49.614Z,94966.00
2023-05-04T09:48:49.560Z,94968.00
2023-05-04T09:49:49.532Z,94966.00
2023-05-04T09:50:49.529Z,94964.00
2023-05-04T09:51:49.493Z,94964.00
2023-05-04T09:52:49.547Z,94960.00
2023-05-04T09:53:49.536Z,94960.00
2023-05-04T09:54:49.499Z,94959.00
2023-05-04T09:55:49.470Z,94959.00
2023-05-04T09:56:49.492Z,94959.00
2023-05-04T09:57:49.502Z,94955.00
2023-05-04T09:58:49.496Z,94953.00
2023-05-04T09:59:49.490Z,94953.00
2023-05-04T10:00:49.456Z,94951.00
2023-05-04T10:01:49.659Z,94949.00
2023-05-04T10:02:49.533Z,94949.00
2023-05-04T10:03:49.542Z,94949.00
2023-05-04T10:04:49.424Z,94949.00
2023-05-04T10:05:49.412Z,94947.00
2023-05-04T10:06:49.412Z,94943.00
2023-05-04T10:07:49.394Z,94941.00
2023-05-04T10:08:49.385Z,94939.00
2023-05-04T10:09:49.415Z,94937.00
2023-05-04T10:10:49.392Z,94935.00
2023-05-04T10:11:49.364Z,94933.00
2023-05-04T10:12:49.425Z,94935.00
2023-05-04T10:13:49.348Z,94933.00
2023-05-04T10:14:49.346Z,94933.00
2023-05-04T10:15:49.378Z,94929.00
2023-05-04T10:16:49.342Z,94925.00
2023-05-04T10:17:49.455Z,94921.00
2023-05-04T10:18:49.328Z,94919.00
2023-05-04T10:19:49.299Z,94915.00
2023-05-04T10:20:49.319Z,94917.00
2023-05-04T10:21:49.350Z,94915.00
2023-05-04T10:22:49.285Z,94912.00
2023-05-04T10:23:49.332Z,94910.00
2023-05-04T10:24:49.327Z,94908.00
2023-05-04T10:25:49.260Z,94912.00
2023-05-04T10:26:49.353Z,94908.00
2023-05-04T10:27:49.280Z,94910.00
2023-05-04T10:28:49.285Z,94908.00
2023-05-04T10:29:49.275Z,94906.00
2023-05-04T10:30:49.257Z,94906.00
2023-05-04T10:31:49.297Z,94904.00
2023-05-04T10:32:49.243Z,94904.00
2023-05-04T10:33:49.314Z,94900.00
2023-05-04T10:34:49.291Z,94900.00
2023-05-04T10:35:49.265Z,94898.00
2023-05-04T10:36:49.211Z,94898.00
2023-05-04T10:37:49.224Z,94900.00
2023-05-04T10:38:49.196Z,94888.00
2023-05-04T10:39:49.213Z,94888.00
2023-05-04T10:40:49.187Z,94884.00
2023-05-04T10:41:49.228Z,94880.00
2023-05-04T10:42:49.161Z,94878.00
2023-05-04T10:43:49.244Z,94876.00
2023-05-04T10:44:49.170Z,94872.00
2023-05-04T10:45:49.171Z,94872.00
2023-05-04T10:46:49.137Z,94870.00
2023-05-04T10:47:49.155Z,94872.00
2023-05-04T10:48:49.137Z,94868.00
2023-05-04T10:49:49.232Z,94864.00
2023-05-04T10:50:49.117Z,94864.00
2023-05-04T10:51:49.757Z,94860.00
2023-05-04T10:52:49.226Z,94860.00
2023-05-04T10:53:49.097Z,94860.00
2023-05-04T10:54:49.083Z,94859.00
2023-05-04T10:55:49.135Z,94855.00
2023-05-04T10:56:49.128Z,94853.00
2023-05-04T10:57:49.096Z,94851.00
2023-05-04T10:58:49.070Z,94849.00
2023-05-04T10:59:49.057Z,94847.00
2023-05-04T11:00:49.059Z,94845.00
2023-05-04T11:01:49.020Z,94845.00
2023-05-04T11:02:49.098Z,94843.00
2023-05-04T11:03:49.087Z,94841.00
2023-05-04T11:04:49.060Z,94837.00
2023-05-04T11:05:49.049Z,94835.00
2023-05-04T11:06:49.010Z,94833.00
2023-05-04T11:07:49.002Z,94827.00
2023-05-04T11:08:49.020Z,94829.00
2023-05-04T11:09:49.002Z,94829.00
2023-05-04T11:10:48.986Z,94825.00
2023-05-04T11:11:48.993Z,94821.00
2023-05-04T11:12:49.046Z,94823.00
2023-05-04T11:13:48.930Z,94819.00
2023-05-04T11:14:48.950Z,94819.00
2023-05-04T11:15:48.956Z,94817.00
2023-05-04T11:16:49.160Z,94817.00
2023-05-04T11:17:48.987Z,94815.00
2023-05-04T11:18:48.926Z,94819.00
2023-05-04T11:19:48.925Z,94817.00
2023-05-04T11:20:48.903Z,94817.00
2023-05-04T11:21:48.920Z,94813.00
2023-05-04T11:22:49.004Z,94813.00
2023-05-04T11:23:48.880Z,94813.00
2023-05-04T11:24:49.110Z,94812.00
2023-05-04T11:25:48.859Z,94812.00
2023-05-04T11:26:48.853Z,94810.00
2023-05-04T11:27:48.852Z,94812.00
2023-05-04T11:28:48.962Z,94810.00
2023-05-04T11:29:48.877Z,94810.00
2023-05-04T11:30:48.833Z,94810.00
2023-05-04T11:31:48.920Z,94808.00
2023-05-04T11:32:48.902Z,94808.00
2023-05-04T11:33:48.883Z,94808.00
2023-05-04T11:34:48.817Z,94806.00
2023-05-04T11:35:48.806Z,94802.00
2023-05-04T11:36:49.886Z,94806.00
2023-05-04T11:37:48.800Z,94800.00
2023-05-04T11:38:48.790Z,94802.00
2023-05-04T11:39:48.769Z,94802.00
2023-05-04T11:40:48.770Z,94798.00
2023-05-04T11:41:48.820Z,94798.00
2023-05-04T11:42:48.829Z,94796.00
2023-05-04T11:43:48.807Z,94794.00
2023-05-04T11:44:48.744Z,94792.00